sensor_id;sensor_type;location;lat;lon;timestamp;temperature;humidity
22006;DHT22;11167;46.988;15.470;2022-07-05T00:01:22;24.00;65.00
22006;DHT22;11167;46.988;15.470;2022-07-05T00:03:23;24.00;64.90
22006;DHT22;11167;46.988;15.470;2022-07-05T00:05:25;24.00;65.00
22006;DHT22;11167;46.988;15.470;2022-07-05T00:07:26;24.10;65.00
22006;DHT22;11167;46.988;15.470;2022-07-05T00:09:27;24.00;65.70
22006;DHT22;11167;46.988;15.470;2022-07-05T00:11:28;24.00;65.00
22006;DHT22;11167;46.988;15.470;2022-07-05T00:13:29;24.00;65.00
22006;DHT22;11167;46.988;15.470;2022-07-05T00:15:31;24.00;65.10
22006;DHT22;11167;46.988;15.470;2022-07-05T00:17:32;23.90;65.00
22006;DHT22;11167;46.988;15.470;2022-07-05T00:19:33;23.90;65.00
22006;DHT22;11167;46.988;15.470;2022-07-05T00:21:34;23.90;65.00
22006;DHT22;11167;46.988;15.470;2022-07-05T00:23:36;23.90;65.00
22006;DHT22;11167;46.988;15.470;2022-07-05T00:25:37;23.90;65.10
22006;DHT22;11167;46.988;15.470;2022-07-05T00:27:38;23.90;65.10
22006;DHT22;11167;46.988;15.470;2022-07-05T00:29:39;23.90;65.10
22006;DHT22;11167;46.988;15.470;2022-07-05T00:31:40;23.90;65.10
22006;DHT22;11167;46.988;15.470;2022-07-05T00:33:42;23.80;65.20
22006;DHT22;11167;46.988;15.470;2022-07-05T00:35:43;23.80;65.20
22006;DHT22;11167;46.988;15.470;2022-07-05T00:37:44;23.80;65.20
22006;DHT22;11167;46.988;15.470;2022-07-05T00:39:45;23.80;65.20
22006;DHT22;11167;46.988;15.470;2022-07-05T00:41:46;23.80;65.20
22006;DHT22;11167;46.988;15.470;2022-07-05T00:44:02;23.80;65.20
22006;DHT22;11167;46.988;15.470;2022-07-05T00:46:01;23.80;65.20
22006;DHT22;11167;46.988;15.470;2022-07-05T00:48:02;23.70;65.20
22006;DHT22;11167;46.988;15.470;2022-07-05T00:50:04;23.70;65.20
22006;DHT22;11167;46.988;15.470;2022-07-05T00:52:06;23.70;65.20
22006;DHT22;11167;46.988;15.470;2022-07-05T00:54:07;23.70;65.20
22006;DHT22;11167;46.988;15.470;2022-07-05T00:56:10;23.70;65.30
22006;DHT22;11167;46.988;15.470;2022-07-05T00:58:11;23.70;65.30
22006;DHT22;11167;46.988;15.470;2022-07-05T01:00:13;23.70;65.30
22006;DHT22;11167;46.988;15.470;2022-07-05T01:02:14;23.70;65.40
22006;DHT22;11167;46.988;15.470;2022-07-05T01:04:15;23.60;65.30
22006;DHT22;11167;46.988;15.470;2022-07-05T01:06:17;23.60;65.30
22006;DHT22;11167;46.988;15.470;2022-07-05T01:08:18;23.60;65.30
22006;DHT22;11167;46.988;15.470;2022-07-05T01:10:20;23.60;65.30
22006;DHT22;11167;46.988;15.470;2022-07-05T01:12:22;23.60;65.40
22006;DHT22;11167;46.988;15.470;2022-07-05T01:14:23;23.60;65.40
22006;DHT22;11167;46.988;15.470;2022-07-05T01:16:24;23.60;65.00
22006;DHT22;11167;46.988;15.470;2022-07-05T01:18:26;23.50;65.30
22006;DHT22;11167;46.988;15.470;2022-07-05T01:20:27;23.60;65.40
22006;DHT22;11167;46.988;15.470;2022-07-05T01:22:49;23.60;65.40
22006;DHT22;11167;46.988;15.470;2022-07-05T01:24:52;23.50;65.30
22006;DHT22;11167;46.988;15.470;2022-07-05T01:26:54;23.50;65.30
22006;DHT22;11167;46.988;15.470;2022-07-05T01:28:55;23.50;65.40
22006;DHT22;11167;46.988;15.470;2022-07-05T01:30:56;23.50;65.50
22006;DHT22;11167;46.988;15.470;2022-07-05T01:32:58;23.40;65.40
22006;DHT22;11167;46.988;15.470;2022-07-05T01:34:59;23.40;65.40
22006;DHT22;11167;46.988;15.470;2022-07-05T01:37:00;23.40;65.50
22006;DHT22;11167;46.988;15.470;2022-07-05T01:39:06;23.40;65.60
22006;DHT22;11167;46.988;15.470;2022-07-05T01:41:08;23.40;65.40
22006;DHT22;11167;46.988;15.470;2022-07-05T01:43:10;23.40;65.50
22006;DHT22;11167;46.988;15.470;2022-07-05T01:45:11;23.40;65.40
22006;DHT22;11167;46.988;15.470;2022-07-05T01:47:13;23.40;65.50
22006;DHT22;11167;46.988;15.470;2022-07-05T01:49:16;23.40;65.50
22006;DHT22;11167;46.988;15.470;2022-07-05T01:51:20;23.40;65.50
22006;DHT22;11167;46.988;15.470;2022-07-05T01:53:24;23.30;65.50
22006;DHT22;11167;46.988;15.470;2022-07-05T01:55:26;23.30;65.50
22006;DHT22;11167;46.988;15.470;2022-07-05T01:57:27;23.30;65.50
22006;DHT22;11167;46.988;15.470;2022-07-05T01:59:29;23.30;64.90
22006;DHT22;11167;46.988;15.470;2022-07-05T02:01:37;23.30;65.50
22006;DHT22;11167;46.988;15.470;2022-07-05T02:03:43;23.30;65.60
22006;DHT22;11167;46.988;15.470;2022-07-05T02:05:45;23.30;65.60
22006;DHT22;11167;46.988;15.470;2022-07-05T02:07:50;23.30;65.60
22006;DHT22;11167;46.988;15.470;2022-07-05T02:09:51;23.30;65.60
22006;DHT22;11167;46.988;15.470;2022-07-05T02:11:52;23.30;65.60
22006;DHT22;11167;46.988;15.470;2022-07-05T02:13:54;23.20;65.70
22006;DHT22;11167;46.988;15.470;2022-07-05T02:15:55;23.30;65.70
22006;DHT22;11167;46.988;15.470;2022-07-05T02:17:56;23.20;65.60
22006;DHT22;11167;46.988;15.470;2022-07-05T02:19:58;23.20;65.70
22006;DHT22;11167;46.988;15.470;2022-07-05T02:22:00;23.20;65.70
22006;DHT22;11167;46.988;15.470;2022-07-05T02:24:01;23.20;65.70
22006;DHT22;11167;46.988;15.470;2022-07-05T02:26:02;23.20;65.70
22006;DHT22;11167;46.988;15.470;2022-07-05T02:28:04;23.20;65.70
22006;DHT22;11167;46.988;15.470;2022-07-05T02:30:06;23.20;65.80
22006;DHT22;11167;46.988;15.470;2022-07-05T02:32:07;23.10;65.70
22006;DHT22;11167;46.988;15.470;2022-07-05T02:34:10;23.10;65.70
22006;DHT22;11167;46.988;15.470;2022-07-05T02:36:13;23.10;65.70
22006;DHT22;11167;46.988;15.470;2022-07-05T02:38:14;23.10;65.90
22006;DHT22;11167;46.988;15.470;2022-07-05T02:40:15;23.10;65.80
22006;DHT22;11167;46.988;15.470;2022-07-05T02:42:16;23.10;65.80
22006;DHT22;11167;46.988;15.470;2022-07-05T02:44:17;23.10;65.90
22006;DHT22;11167;46.988;15.470;2022-07-05T02:46:18;23.10;65.90
22006;DHT22;11167;46.988;15.470;2022-07-05T02:48:20;23.10;65.90
22006;DHT22;11167;46.988;15.470;2022-07-05T02:50:21;23.10;65.10
22006;DHT22;11167;46.988;15.470;2022-07-05T02:52:22;23.10;65.90
22006;DHT22;11167;46.988;15.470;2022-07-05T02:54:23;23.10;65.90
22006;DHT22;11167;46.988;15.470;2022-07-05T02:56:24;23.00;65.90
22006;DHT22;11167;46.988;15.470;2022-07-05T02:58:26;23.10;65.90
22006;DHT22;11167;46.988;15.470;2022-07-05T03:00:27;23.00;65.90
22006;DHT22;11167;46.988;15.470;2022-07-05T03:02:29;23.00;65.90
22006;DHT22;11167;46.988;15.470;2022-07-05T03:04:31;23.00;65.90
22006;DHT22;11167;46.988;15.470;2022-07-05T03:06:32;23.00;65.90
22006;DHT22;11167;46.988;15.470;2022-07-05T03:08:33;23.00;65.90
22006;DHT22;11167;46.988;15.470;2022-07-05T03:10:35;23.00;65.90
22006;DHT22;11167;46.988;15.470;2022-07-05T03:12:37;23.00;66.50
22006;DHT22;11167;46.988;15.470;2022-07-05T03:14:38;23.00;65.90
22006;DHT22;11167;46.988;15.470;2022-07-05T03:16:40;23.00;66.00
22006;DHT22;11167;46.988;15.470;2022-07-05T03:18:41;22.90;65.90
22006;DHT22;11167;46.988;15.470;2022-07-05T03:20:42;23.00;66.00
22006;DHT22;11167;46.988;15.470;2022-07-05T03:22:43;22.90;65.90
22006;DHT22;11167;46.988;15.470;2022-07-05T03:24:44;22.90;66.00
22006;DHT22;11167;46.988;15.470;2022-07-05T03:26:46;22.90;66.10
22006;DHT22;11167;46.988;15.470;2022-07-05T03:28:47;22.90;66.10
22006;DHT22;11167;46.988;15.470;2022-07-05T03:30:48;22.90;66.00
22006;DHT22;11167;46.988;15.470;2022-07-05T03:32:49;22.90;66.10
22006;DHT22;11167;46.988;15.470;2022-07-05T03:34:51;22.90;66.10
22006;DHT22;11167;46.988;15.470;2022-07-05T03:36:52;22.90;66.10
22006;DHT22;11167;46.988;15.470;2022-07-05T03:38:59;22.90;66.10
22006;DHT22;11167;46.988;15.470;2022-07-05T03:41:00;22.90;66.20
22006;DHT22;11167;46.988;15.470;2022-07-05T03:43:01;22.80;66.10
22006;DHT22;11167;46.988;15.470;2022-07-05T03:45:03;22.90;66.20
22006;DHT22;11167;46.988;15.470;2022-07-05T03:47:04;22.80;66.10
22006;DHT22;11167;46.988;15.470;2022-07-05T03:49:06;22.80;66.10
22006;DHT22;11167;46.988;15.470;2022-07-05T03:51:07;22.80;66.30
22006;DHT22;11167;46.988;15.470;2022-07-05T03:53:08;22.80;66.30
22006;DHT22;11167;46.988;15.470;2022-07-05T03:55:09;22.80;66.30
22006;DHT22;11167;46.988;15.470;2022-07-05T03:57:11;22.80;66.30
22006;DHT22;11167;46.988;15.470;2022-07-05T03:59:13;22.80;66.30
22006;DHT22;11167;46.988;15.470;2022-07-05T04:01:15;22.80;66.30
22006;DHT22;11167;46.988;15.470;2022-07-05T04:03:18;22.80;66.30
22006;DHT22;11167;46.988;15.470;2022-07-05T04:05:20;22.70;66.30
22006;DHT22;11167;46.988;15.470;2022-07-05T04:07:21;22.80;66.40
22006;DHT22;11167;46.988;15.470;2022-07-05T04:09:22;22.70;66.30
22006;DHT22;11167;46.988;15.470;2022-07-05T04:11:23;22.70;67.20
22006;DHT22;11167;46.988;15.470;2022-07-05T04:13:24;22.70;66.40
22006;DHT22;11167;46.988;15.470;2022-07-05T04:15:25;22.70;67.20
22006;DHT22;11167;46.988;15.470;2022-07-05T04:17:27;22.70;66.50
22006;DHT22;11167;46.988;15.470;2022-07-05T04:19:30;22.70;66.50
22006;DHT22;11167;46.988;15.470;2022-07-05T04:21:31;22.70;66.50
22006;DHT22;11167;46.988;15.470;2022-07-05T04:23:32;22.70;66.60
22006;DHT22;11167;46.988;15.470;2022-07-05T04:25:33;22.70;66.50
22006;DHT22;11167;46.988;15.470;2022-07-05T04:27:34;22.70;66.50
22006;DHT22;11167;46.988;15.470;2022-07-05T04:29:35;22.70;66.50
22006;DHT22;11167;46.988;15.470;2022-07-05T04:31:37;22.70;66.60
22006;DHT22;11167;46.988;15.470;2022-07-05T04:33:38;22.70;66.50
22006;DHT22;11167;46.988;15.470;2022-07-05T04:35:39;22.70;66.60
22006;DHT22;11167;46.988;15.470;2022-07-05T04:37:41;22.70;66.60
22006;DHT22;11167;46.988;15.470;2022-07-05T04:39:42;22.70;66.60
22006;DHT22;11167;46.988;15.470;2022-07-05T04:41:43;22.70;66.60
22006;DHT22;11167;46.988;15.470;2022-07-05T04:43:45;22.60;66.60
22006;DHT22;11167;46.988;15.470;2022-07-05T04:45:46;22.60;66.60
22006;DHT22;11167;46.988;15.470;2022-07-05T04:47:47;22.60;66.60
22006;DHT22;11167;46.988;15.470;2022-07-05T04:49:49;22.60;66.60
22006;DHT22;11167;46.988;15.470;2022-07-05T04:51:50;22.60;66.60
22006;DHT22;11167;46.988;15.470;2022-07-05T04:53:51;22.60;66.60
22006;DHT22;11167;46.988;15.470;2022-07-05T04:55:52;22.60;66.70
22006;DHT22;11167;46.988;15.470;2022-07-05T04:57:53;22.60;67.40
22006;DHT22;11167;46.988;15.470;2022-07-05T04:59:54;22.60;66.90
22006;DHT22;11167;46.988;15.470;2022-07-05T05:01:56;22.60;66.70
22006;DHT22;11167;46.988;15.470;2022-07-05T05:03:57;22.60;66.20
22006;DHT22;11167;46.988;15.470;2022-07-05T05:05:58;22.60;66.70
22006;DHT22;11167;46.988;15.470;2022-07-05T05:08:00;22.60;66.80
22006;DHT22;11167;46.988;15.470;2022-07-05T05:10:04;22.60;66.80
22006;DHT22;11167;46.988;15.470;2022-07-05T05:12:06;22.60;66.80
22006;DHT22;11167;46.988;15.470;2022-07-05T05:14:07;22.60;66.80
22006;DHT22;11167;46.988;15.470;2022-07-05T05:16:08;22.50;66.70
22006;DHT22;11167;46.988;15.470;2022-07-05T05:18:09;22.60;66.80
22006;DHT22;11167;46.988;15.470;2022-07-05T05:20:13;22.60;67.60
22006;DHT22;11167;46.988;15.470;2022-07-05T05:22:15;22.50;66.80
22006;DHT22;11167;46.988;15.470;2022-07-05T05:24:16;22.60;66.80
22006;DHT22;11167;46.988;15.470;2022-07-05T05:26:17;22.50;66.80
22006;DHT22;11167;46.988;15.470;2022-07-05T05:28:18;22.50;66.90
22006;DHT22;11167;46.988;15.470;2022-07-05T05:30:20;22.50;66.80
22006;DHT22;11167;46.988;15.470;2022-07-05T05:32:22;22.50;66.80
22006;DHT22;11167;46.988;15.470;2022-07-05T05:34:23;22.50;66.80
22006;DHT22;11167;46.988;15.470;2022-07-05T05:36:24;22.50;66.80
22006;DHT22;11167;46.988;15.470;2022-07-05T05:38:25;22.50;67.00
22006;DHT22;11167;46.988;15.470;2022-07-05T05:40:26;22.50;67.00
22006;DHT22;11167;46.988;15.470;2022-07-05T05:42:28;22.50;66.90
22006;DHT22;11167;46.988;15.470;2022-07-05T05:44:29;22.50;66.90
22006;DHT22;11167;46.988;15.470;2022-07-05T05:46:30;22.50;67.00
22006;DHT22;11167;46.988;15.470;2022-07-05T05:48:31;22.50;67.00
22006;DHT22;11167;46.988;15.470;2022-07-05T05:50:34;22.50;67.00
22006;DHT22;11167;46.988;15.470;2022-07-05T05:52:36;22.50;66.90
22006;DHT22;11167;46.988;15.470;2022-07-05T05:54:37;22.50;67.00
22006;DHT22;11167;46.988;15.470;2022-07-05T05:56:38;22.50;67.00
22006;DHT22;11167;46.988;15.470;2022-07-05T05:58:39;22.50;66.60
22006;DHT22;11167;46.988;15.470;2022-07-05T06:00:42;22.50;67.00
22006;DHT22;11167;46.988;15.470;2022-07-05T06:02:44;22.50;67.10
22006;DHT22;11167;46.988;15.470;2022-07-05T06:04:46;22.50;67.00
22006;DHT22;11167;46.988;15.470;2022-07-05T06:06:47;22.50;67.00
22006;DHT22;11167;46.988;15.470;2022-07-05T06:08:48;22.50;67.10
22006;DHT22;11167;46.988;15.470;2022-07-05T06:10:49;22.50;67.10
22006;DHT22;11167;46.988;15.470;2022-07-05T06:12:52;22.50;67.10
22006;DHT22;11167;46.988;15.470;2022-07-05T06:14:53;22.50;67.10
22006;DHT22;11167;46.988;15.470;2022-07-05T06:16:54;22.50;67.10
22006;DHT22;11167;46.988;15.470;2022-07-05T06:18:55;22.50;67.20
22006;DHT22;11167;46.988;15.470;2022-07-05T06:20:56;22.50;67.10
22006;DHT22;11167;46.988;15.470;2022-07-05T06:22:58;22.50;67.10
22006;DHT22;11167;46.988;15.470;2022-07-05T06:25:01;22.50;67.20
22006;DHT22;11167;46.988;15.470;2022-07-05T06:27:02;22.50;67.20
22006;DHT22;11167;46.988;15.470;2022-07-05T06:29:05;22.50;67.20
22006;DHT22;11167;46.988;15.470;2022-07-05T06:31:06;22.50;67.20
22006;DHT22;11167;46.988;15.470;2022-07-05T06:33:07;22.50;67.20
22006;DHT22;11167;46.988;15.470;2022-07-05T06:35:09;22.50;67.20
22006;DHT22;11167;46.988;15.470;2022-07-05T06:37:10;22.50;67.20
22006;DHT22;11167;46.988;15.470;2022-07-05T06:39:11;22.50;67.20
22006;DHT22;11167;46.988;15.470;2022-07-05T06:41:13;22.50;67.20
22006;DHT22;11167;46.988;15.470;2022-07-05T06:43:15;22.50;67.20
22006;DHT22;11167;46.988;15.470;2022-07-05T06:45:16;22.50;67.20
22006;DHT22;11167;46.988;15.470;2022-07-05T06:47:17;22.50;67.20
22006;DHT22;11167;46.988;15.470;2022-07-05T06:49:18;22.50;67.30
22006;DHT22;11167;46.988;15.470;2022-07-05T06:51:19;22.50;68.20
22006;DHT22;11167;46.988;15.470;2022-07-05T06:53:21;22.50;67.20
22006;DHT22;11167;46.988;15.470;2022-07-05T06:55:23;22.50;67.40
22006;DHT22;11167;46.988;15.470;2022-07-05T06:57:24;22.50;67.30
22006;DHT22;11167;46.988;15.470;2022-07-05T06:59:25;22.50;67.20
22006;DHT22;11167;46.988;15.470;2022-07-05T07:01:27;22.50;67.30
22006;DHT22;11167;46.988;15.470;2022-07-05T07:03:28;22.60;67.40
22006;DHT22;11167;46.988;15.470;2022-07-05T07:05:29;22.50;67.30
22006;DHT22;11167;46.988;15.470;2022-07-05T07:07:34;22.50;67.30
22006;DHT22;11167;46.988;15.470;2022-07-05T07:10:02;22.60;67.40
22006;DHT22;11167;46.988;15.470;2022-07-05T07:12:00;22.60;67.40
22006;DHT22;11167;46.988;15.470;2022-07-05T07:14:01;22.60;67.40
22006;DHT22;11167;46.988;15.470;2022-07-05T07:16:03;22.60;67.40
22006;DHT22;11167;46.988;15.470;2022-07-05T07:18:04;22.60;67.80
22006;DHT22;11167;46.988;15.470;2022-07-05T07:20:06;22.60;67.40
22006;DHT22;11167;46.988;15.470;2022-07-05T07:22:07;22.60;67.40
22006;DHT22;11167;46.988;15.470;2022-07-05T07:24:08;22.60;67.40
22006;DHT22;11167;46.988;15.470;2022-07-05T07:26:09;22.60;67.40
22006;DHT22;11167;46.988;15.470;2022-07-05T07:28:12;22.60;67.40
22006;DHT22;11167;46.988;15.470;2022-07-05T07:32:39;22.60;67.50
22006;DHT22;11167;46.988;15.470;2022-07-05T07:34:40;22.60;67.40
22006;DHT22;11167;46.988;15.470;2022-07-05T07:36:41;22.60;67.40
22006;DHT22;11167;46.988;15.470;2022-07-05T07:38:42;22.60;67.50
22006;DHT22;11167;46.988;15.470;2022-07-05T07:40:44;22.60;67.40
22006;DHT22;11167;46.988;15.470;2022-07-05T07:42:45;22.70;67.40
22006;DHT22;11167;46.988;15.470;2022-07-05T07:44:46;22.60;67.40
22006;DHT22;11167;46.988;15.470;2022-07-05T07:46:47;22.60;67.40
22006;DHT22;11167;46.988;15.470;2022-07-05T07:48:48;22.60;67.40
22006;DHT22;11167;46.988;15.470;2022-07-05T07:50:49;22.70;67.50
22006;DHT22;11167;46.988;15.470;2022-07-05T07:52:51;22.70;67.60
22006;DHT22;11167;46.988;15.470;2022-07-05T07:54:52;22.70;67.50
22006;DHT22;11167;46.988;15.470;2022-07-05T07:56:53;22.70;67.50
22006;DHT22;11167;46.988;15.470;2022-07-05T07:58:54;22.70;67.50
22006;DHT22;11167;46.988;15.470;2022-07-05T08:00:56;22.70;67.50
22006;DHT22;11167;46.988;15.470;2022-07-05T08:03:03;22.70;68.30
22006;DHT22;11167;46.988;15.470;2022-07-05T08:05:06;22.70;67.50
22006;DHT22;11167;46.988;15.470;2022-07-05T08:07:09;22.70;67.60
22006;DHT22;11167;46.988;15.470;2022-07-05T08:09:11;22.70;67.50
22006;DHT22;11167;46.988;15.470;2022-07-05T08:11:14;22.70;68.60
22006;DHT22;11167;46.988;15.470;2022-07-05T08:13:16;22.70;67.60
22006;DHT22;11167;46.988;15.470;2022-07-05T08:15:17;22.70;67.50
22006;DHT22;11167;46.988;15.470;2022-07-05T08:17:18;22.80;68.20
22006;DHT22;11167;46.988;15.470;2022-07-05T08:19:21;22.70;67.60
22006;DHT22;11167;46.988;15.470;2022-07-05T08:21:42;22.80;67.60
22006;DHT22;11167;46.988;15.470;2022-07-05T08:23:43;22.80;67.60
22006;DHT22;11167;46.988;15.470;2022-07-05T08:25:44;22.80;67.60
22006;DHT22;11167;46.988;15.470;2022-07-05T08:27:45;22.80;67.80
22006;DHT22;11167;46.988;15.470;2022-07-05T08:29:46;22.80;67.70
22006;DHT22;11167;46.988;15.470;2022-07-05T08:31:50;22.80;67.70
22006;DHT22;11167;46.988;15.470;2022-07-05T08:33:51;22.80;67.70
22006;DHT22;11167;46.988;15.470;2022-07-05T08:35:52;22.80;67.70
22006;DHT22;11167;46.988;15.470;2022-07-05T08:37:53;22.90;67.80
22006;DHT22;11167;46.988;15.470;2022-07-05T08:39:55;22.80;67.80
22006;DHT22;11167;46.988;15.470;2022-07-05T08:41:57;22.80;67.80
22006;DHT22;11167;46.988;15.470;2022-07-05T08:43:59;22.90;67.90
22006;DHT22;11167;46.988;15.470;2022-07-05T08:46:01;22.90;68.00
22006;DHT22;11167;46.988;15.470;2022-07-05T08:48:03;22.90;67.80
22006;DHT22;11167;46.988;15.470;2022-07-05T08:50:06;22.90;67.80
22006;DHT22;11167;46.988;15.470;2022-07-05T08:52:10;22.90;68.00
22006;DHT22;11167;46.988;15.470;2022-07-05T08:54:13;23.00;67.90
22006;DHT22;11167;46.988;15.470;2022-07-05T08:56:23;23.00;67.90
22006;DHT22;11167;46.988;15.470;2022-07-05T08:58:24;23.00;67.90
22006;DHT22;11167;46.988;15.470;2022-07-05T09:00:25;23.00;68.00
22006;DHT22;11167;46.988;15.470;2022-07-05T09:02:27;23.00;67.80
22006;DHT22;11167;46.988;15.470;2022-07-05T09:04:35;23.00;68.00
22006;DHT22;11167;46.988;15.470;2022-07-05T09:06:39;23.10;68.10
22006;DHT22;11167;46.988;15.470;2022-07-05T09:08:40;23.10;68.00
22006;DHT22;11167;46.988;15.470;2022-07-05T09:10:43;23.10;68.10
22006;DHT22;11167;46.988;15.470;2022-07-05T09:12:44;23.10;68.10
22006;DHT22;11167;46.988;15.470;2022-07-05T09:14:45;23.10;68.10
22006;DHT22;11167;46.988;15.470;2022-07-05T09:16:47;23.10;68.10
22006;DHT22;11167;46.988;15.470;2022-07-05T09:18:51;23.10;68.10
22006;DHT22;11167;46.988;15.470;2022-07-05T09:21:05;23.20;68.20
22006;DHT22;11167;46.988;15.470;2022-07-05T09:22:57;23.20;68.20
22006;DHT22;11167;46.988;15.470;2022-07-05T09:25:12;23.20;68.20
22006;DHT22;11167;46.988;15.470;2022-07-05T09:27:04;23.30;68.20
22006;DHT22;11167;46.988;15.470;2022-07-05T09:29:08;23.30;68.30
22006;DHT22;11167;46.988;15.470;2022-07-05T09:31:25;23.30;68.30
22006;DHT22;11167;46.988;15.470;2022-07-05T09:33:15;23.30;68.30
22006;DHT22;11167;46.988;15.470;2022-07-05T09:35:20;23.30;68.30
22006;DHT22;11167;46.988;15.470;2022-07-05T09:37:21;23.30;68.30
22006;DHT22;11167;46.988;15.470;2022-07-05T09:41:38;23.40;68.30
22006;DHT22;11167;46.988;15.470;2022-07-05T09:43:39;23.40;68.30
22006;DHT22;11167;46.988;15.470;2022-07-05T09:45:56;23.40;68.40
22006;DHT22;11167;46.988;15.470;2022-07-05T09:47:57;23.40;68.40
22006;DHT22;11167;46.988;15.470;2022-07-05T09:49:59;23.50;68.40
22006;DHT22;11167;46.988;15.470;2022-07-05T09:52:02;23.50;68.50
22006;DHT22;11167;46.988;15.470;2022-07-05T09:54:04;23.50;68.50
22006;DHT22;11167;46.988;15.470;2022-07-05T09:56:05;23.60;68.60
22006;DHT22;11167;46.988;15.470;2022-07-05T09:58:07;23.60;68.60
22006;DHT22;11167;46.988;15.470;2022-07-05T10:00:13;23.60;68.60
22006;DHT22;11167;46.988;15.470;2022-07-05T10:04:37;23.60;68.50
22006;DHT22;11167;46.988;15.470;2022-07-05T10:06:38;23.70;68.60
22006;DHT22;11167;46.988;15.470;2022-07-05T10:08:40;23.70;68.60
22006;DHT22;11167;46.988;15.470;2022-07-05T10:10:41;23.70;68.60
22006;DHT22;11167;46.988;15.470;2022-07-05T10:12:48;23.70;68.60
22006;DHT22;11167;46.988;15.470;2022-07-05T10:14:50;23.70;68.60
22006;DHT22;11167;46.988;15.470;2022-07-05T10:17:02;23.80;68.60
22006;DHT22;11167;46.988;15.470;2022-07-05T10:19:05;23.80;68.70
22006;DHT22;11167;46.988;15.470;2022-07-05T10:21:17;23.80;68.60
22006;DHT22;11167;46.988;15.470;2022-07-05T10:23:18;23.80;68.70
22006;DHT22;11167;46.988;15.470;2022-07-05T10:25:21;23.80;68.60
22006;DHT22;11167;46.988;15.470;2022-07-05T10:27:23;23.90;68.80
22006;DHT22;11167;46.988;15.470;2022-07-05T10:29:26;23.90;68.70
22006;DHT22;11167;46.988;15.470;2022-07-05T10:31:28;23.90;68.80
22006;DHT22;11167;46.988;15.470;2022-07-05T10:33:29;23.90;68.80
22006;DHT22;11167;46.988;15.470;2022-07-05T10:35:31;24.00;68.80
22006;DHT22;11167;46.988;15.470;2022-07-05T10:37:33;24.00;68.80
22006;DHT22;11167;46.988;15.470;2022-07-05T10:39:35;24.00;68.80
22006;DHT22;11167;46.988;15.470;2022-07-05T10:41:37;24.00;68.80
22006;DHT22;11167;46.988;15.470;2022-07-05T10:43:41;24.00;68.80
22006;DHT22;11167;46.988;15.470;2022-07-05T10:45:49;24.10;69.00
22006;DHT22;11167;46.988;15.470;2022-07-05T10:50:12;24.20;68.90
22006;DHT22;11167;46.988;15.470;2022-07-05T10:52:24;24.20;69.10
22006;DHT22;11167;46.988;15.470;2022-07-05T10:54:25;24.40;69.10
22006;DHT22;11167;46.988;15.470;2022-07-05T10:56:26;24.20;69.00
22006;DHT22;11167;46.988;15.470;2022-07-05T10:58:44;24.20;69.00
22006;DHT22;11167;46.988;15.470;2022-07-05T11:00:47;24.30;68.30
22006;DHT22;11167;46.988;15.470;2022-07-05T11:03:06;24.30;69.10
22006;DHT22;11167;46.988;15.470;2022-07-05T11:05:08;24.30;69.10
22006;DHT22;11167;46.988;15.470;2022-07-05T11:07:10;24.40;69.10
22006;DHT22;11167;46.988;15.470;2022-07-05T11:09:14;24.40;69.20
22006;DHT22;11167;46.988;15.470;2022-07-05T11:11:15;24.40;69.10
22006;DHT22;11167;46.988;15.470;2022-07-05T11:13:41;24.40;68.90
22006;DHT22;11167;46.988;15.470;2022-07-05T11:18:25;24.50;69.30
22006;DHT22;11167;46.988;15.470;2022-07-05T11:20:28;24.50;69.30
22006;DHT22;11167;46.988;15.470;2022-07-05T11:22:30;24.60;70.20
22006;DHT22;11167;46.988;15.470;2022-07-05T11:24:33;24.60;69.40
22006;DHT22;11167;46.988;15.470;2022-07-05T11:26:35;24.70;69.40
22006;DHT22;11167;46.988;15.470;2022-07-05T11:28:44;24.70;69.40
22006;DHT22;11167;46.988;15.470;2022-07-05T11:30:48;24.70;69.40
22006;DHT22;11167;46.988;15.470;2022-07-05T11:32:49;24.80;69.40
22006;DHT22;11167;46.988;15.470;2022-07-05T11:34:53;24.80;69.40
22006;DHT22;11167;46.988;15.470;2022-07-05T11:39:25;24.90;69.40
22006;DHT22;11167;46.988;15.470;2022-07-05T11:41:29;24.90;69.40
22006;DHT22;11167;46.988;15.470;2022-07-05T11:43:31;24.90;69.40
22006;DHT22;11167;46.988;15.470;2022-07-05T11:45:33;25.00;69.40
22006;DHT22;11167;46.988;15.470;2022-07-05T11:47:35;25.00;69.40
22006;DHT22;11167;46.988;15.470;2022-07-05T11:49:37;25.00;69.40
22006;DHT22;11167;46.988;15.470;2022-07-05T11:51:38;25.10;69.40
22006;DHT22;11167;46.988;15.470;2022-07-05T11:53:40;25.10;69.50
22006;DHT22;11167;46.988;15.470;2022-07-05T11:55:42;25.10;69.40
22006;DHT22;11167;46.988;15.470;2022-07-05T11:57:51;25.10;69.40
22006;DHT22;11167;46.988;15.470;2022-07-05T11:59:53;25.20;69.40
22006;DHT22;11167;46.988;15.470;2022-07-05T12:01:55;25.20;69.40
22006;DHT22;11167;46.988;15.470;2022-07-05T12:03:56;25.20;69.00
22006;DHT22;11167;46.988;15.470;2022-07-05T12:05:57;25.30;69.50
22006;DHT22;11167;46.988;15.470;2022-07-05T12:07:59;25.30;69.50
22006;DHT22;11167;46.988;15.470;2022-07-05T12:10:02;25.40;69.50
22006;DHT22;11167;46.988;15.470;2022-07-05T12:12:23;25.40;70.30
22006;DHT22;11167;46.988;15.470;2022-07-05T12:14:49;25.40;69.50
22006;DHT22;11167;46.988;15.470;2022-07-05T12:17:16;25.40;69.50
22006;DHT22;11167;46.988;15.470;2022-07-05T12:19:25;25.50;69.60
22006;DHT22;11167;46.988;15.470;2022-07-05T12:21:27;25.50;69.60
22006;DHT22;11167;46.988;15.470;2022-07-05T12:23:28;25.50;69.60
22006;DHT22;11167;46.988;15.470;2022-07-05T12:25:30;25.60;69.60
22006;DHT22;11167;46.988;15.470;2022-07-05T12:27:34;25.60;69.60
22006;DHT22;11167;46.988;15.470;2022-07-05T12:29:35;25.70;69.70
22006;DHT22;11167;46.988;15.470;2022-07-05T12:31:37;25.70;70.40
22006;DHT22;11167;46.988;15.470;2022-07-05T12:33:38;25.70;69.70
22006;DHT22;11167;46.988;15.470;2022-07-05T12:35:42;25.70;69.60
22006;DHT22;11167;46.988;15.470;2022-07-05T12:37:44;25.80;69.70
22006;DHT22;11167;46.988;15.470;2022-07-05T12:39:45;25.80;69.60
22006;DHT22;11167;46.988;15.470;2022-07-05T12:41:46;25.90;69.70
22006;DHT22;11167;46.988;15.470;2022-07-05T12:43:49;25.90;69.70
22006;DHT22;11167;46.988;15.470;2022-07-05T12:46:04;25.90;69.70
22006;DHT22;11167;46.988;15.470;2022-07-05T12:48:07;26.00;69.70
22006;DHT22;11167;46.988;15.470;2022-07-05T12:50:08;26.00;69.70
22006;DHT22;11167;46.988;15.470;2022-07-05T12:52:10;26.00;69.70
22006;DHT22;11167;46.988;15.470;2022-07-05T12:54:23;26.10;69.80
22006;DHT22;11167;46.988;15.470;2022-07-05T12:56:52;26.10;69.80